CheckWX is a tool to help pilots better visualize weather data.  It is not intended as a substitute for an official pre-flight weather briefing.

00:57:43 UTC

LTFE TAF
Milas Bodrum International Airport
Bodrum, Turkey
TAF LTFE 110440Z 1106/1206 VRB02KT CAVOK BECMG 1108/1110 26015KT FEW035 BECMG 1116/1118 VRB02KT CAVOK

Jul-11@
06:00 UTC

Jul-11 @ 06:00 UTC

Jul-11@
08:00 UTC

Jul-11 @ 08:00 UTC

TAF LTFE 110440Z 1106/1206 VRB02KT CAVOK

Expired

Wind
  • Variable at 2 KTS
Conditions
No significant weather
Cloud Levels
  • No significant clouds

Jul-11@
08:00 UTC

Jul-11 @ 08:00 UTC

Jul-11@
16:00 UTC

Jul-11 @ 16:00 UTC

BECMG 1108/1110 26015KT FEW035

Expired

Wind
  • 260° at 15 KTS
Conditions
No significant weather
Cloud Levels
  • Few at 3,500' AGL

Jul-11@
16:00 UTC

Jul-11 @ 16:00 UTC

Jul-12@
06:00 UTC

Jul-12 @ 06:00 UTC

BECMG 1116/1118 VRB02KT CAVOK

Becoming

Becoming Conditions expected by Sat, Jul 11, 2020 @ 18:00 UTC

Wind
  • Variable at 2 KTS
Conditions
No significant weather
Cloud Levels
  • No significant clouds